Latest Weather Observations for Blackall

IDQ60801

Issued at 11:05 pm EST Thursday 24 April 2014 (issued every 30 minutes, with the page automatically refreshed every 10 minutes)

About weather observations | Map of weather stations | Latest weather observations for QLD | Other Formats
Station Details ID: 036034 Name: BLACKALL AIRPORT Lat: -24.43 Lon: 145.43 Height: 281.3 m
Data from the previous 72 hours. | See also: Recent months at Blackall
Date/Time
EST
Temp
°C
App
Temp
°C
Dew
Point
Rel
Hum
%
Delta-T
°C
Wind Press
QNH
hPa
Press
MSL
hPa
Rain
since 9 am
mm
Dir
 
Spd
km/h
Gust
km/h
Spd
kts
Gust
kts
24/11:00pm 18.9 17.2 7.4 47 5.9 ENE 6 9 3 5 1015.4 - 0.0
24/10:30pm 19.3 17.9 7.4 46 6.1 NE 4 7 2 4 1015.4 - 0.0
24/10:00pm 19.6 17.8 7.0 44 6.5 ENE 6 9 3 5 1015.4 - 0.0
24/09:30pm 20.8 18.9 6.7 40 7.2 ENE 6 7 3 4 1015.3 - 0.0
24/09:00pm 22.0 19.9 6.7 37 7.9 NE 7 9 4 5 1015.2 1013.9 0.0
24/08:30pm 22.9 20.8 6.6 35 8.5 ENE 7 9 4 5 1014.9 - 0.0
24/08:00pm 23.8 21.8 7.0 34 8.8 ENE 7 9 4 5 1014.7 - 0.0
24/07:30pm 24.1 21.9 6.4 32 9.2 E 7 9 4 5 1014.4 - 0.0
24/07:00pm 25.0 23.0 7.2 32 9.5 ENE 7 9 4 5 1013.9 - 0.0
24/06:30pm 26.3 24.2 5.8 27 10.7 E 6 7 3 4 1013.5 - 0.0
24/06:00pm 28.1 25.0 5.6 24 11.8 E 11 13 6 7 1013.2 1011.9 0.0
24/05:30pm 30.1 26.6 5.4 21 13.1 ESE 13 20 7 11 1012.9 - 0.0
24/05:00pm 30.8 27.3 5.3 20 13.6 E 13 22 7 12 1012.7 - 0.0
24/04:30pm 31.7 29.5 6.0 20 13.9 NNE 7 13 4 7 1012.5 - 0.0
24/04:00pm 31.8 31.1 6.8 21 13.7 CALM 0 9 0 5 1012.6 - 0.0
24/03:30pm 30.6 26.4 5.8 21 13.3 ESE 17 20 9 11 1012.8 - 0.0
24/03:00pm 32.0 29.2 7.0 21 13.8 ENE 11 20 6 11 1012.8 1011.5 0.0
24/02:30pm 31.3 28.6 5.7 20 13.7 E 9 17 5 9 1013.0 - 0.0
24/02:00pm 31.2 28.8 7.0 22 13.3 NNE 9 20 5 11 1013.4 - 0.0
24/01:30pm 30.3 27.5 6.9 23 12.7 NNE 11 17 6 9 1013.9 - 0.0
24/01:00pm 29.7 26.4 8.2 26 11.9 E 15 37 8 20 1014.5 - 0.0
24/12:30pm 30.1 28.6 10.6 30 11.3 SSE 9 17 5 9 1015.3 - 0.0
24/12:00pm 29.7 28.0 11.2 31 10.8 ENE 11 19 6 10 1015.9 1014.6 0.0
24/11:30am 28.1 26.5 11.6 36 9.6 E 11 17 6 9 1016.4 - 0.0
24/11:00am 28.4 27.2 12.7 38 9.3 N 11 19 6 10 1016.7 - 0.0
24/10:30am 27.4 26.4 13.4 42 8.4 NNE 11 22 6 12 1017.3 - 0.0
24/10:00am 26.4 26.1 14.5 48 7.2 N 9 19 5 10 1017.5 - 0.0
24/09:30am 25.2 25.0 14.6 51 6.4 NE 9 15 5 8 1017.6 - 0.0
24/09:00am 24.1 23.5 14.5 55 5.8 ENE 11 15 6 8 1017.6 1016.4 0.0
24/08:30am 20.7 20.4 13.4 63 4.2 NE 7 11 4 6 1017.1 - 0.0
24/08:00am 19.6 18.3 12.6 64 4.0 ENE 11 13 6 7 1017.2 - 0.0
24/07:30am 18.8 17.9 12.5 67 3.6 ENE 9 13 5 7 1017.1 - 0.0
24/07:00am 17.2 16.5 11.9 71 2.9 E 7 9 4 5 1016.7 - 0.0
24/06:30am 16.9 17.5 11.8 72 2.8 CALM 0 2 0 1 1016.3 - 0.0
24/06:00am 17.7 17.2 12.2 70 3.1 NE 6 9 3 5 1015.9 1014.6 0.0
24/05:30am 18.1 17.6 12.8 71 3.0 NE 7 11 4 6 1015.7 - 0.0
24/05:00am 17.3 17.6 10.9 66 3.5 CALM 0 4 0 2 1015.6 - 0.0
24/04:30am 17.6 16.7 11.2 66 3.5 SSE 7 9 4 5 1015.3 - 0.0
24/04:00am 17.5 16.5 10.9 65 3.6 E 7 9 4 5 1015.0 - 0.0
24/03:30am 17.0 15.6 9.7 62 3.9 E 7 11 4 6 1015.1 - 0.0
24/03:00am 17.6 16.2 9.5 59 4.3 NE 7 9 4 5 1015.0 1013.7 0.0
24/02:30am 18.3 17.6 10.2 59 4.4 ENE 4 9 2 5 1015.1 - 0.0
24/02:00am 18.5 17.2 9.3 55 4.9 E 6 7 3 4 1015.1 - 0.0
24/01:30am 19.1 17.3 9.3 53 5.2 ESE 9 13 5 7 1015.3 - 0.0
24/01:00am 19.6 17.9 9.8 53 5.3 ENE 9 11 5 6 1015.4 - 0.0
24/12:30am 20.6 19.4 10.4 52 5.6 NNE 7 13 4 7 1015.5 - 0.0
24/12:00am 19.8 18.9 9.1 50 5.7 N 4 7 2 4 1015.7 1014.4 0.0
 
Date/Time
EST
Temp
°C
App
Temp
°C
Dew
Point
Rel
Hum
%
Delta-T
°C
Wind Press
QNH
hPa
Press
MSL
hPa
Rain
since 9 am
mm
Dir
 
Spd
km/h
Gust
km/h
Spd
kts
Gust
kts
23/11:30pm 21.6 20.2 9.5 46 6.6 NE 7 9 4 5 1015.7 - 0.0
23/11:00pm 22.3 20.8 9.1 43 7.2 NNE 7 11 4 6 1016.0 - 0.0
23/10:30pm 23.0 20.2 8.7 40 7.7 NE 13 15 7 8 1016.1 - 0.0
23/10:00pm 23.1 21.1 8.8 40 7.7 ENE 9 13 5 7 1016.2 - 0.0
23/09:30pm 22.7 20.2 8.0 39 7.8 NE 11 13 6 7 1016.2 - 0.0
23/09:00pm 23.8 21.3 8.2 37 8.4 ENE 11 13 6 7 1016.2 1014.9 0.0
23/08:30pm 23.4 21.4 8.7 39 8.0 ENE 9 11 5 6 1016.0 - 0.0
23/08:00pm 23.1 21.3 7.2 36 8.4 NE 6 7 3 4 1015.6 - 0.0
23/07:30pm 23.7 22.3 7.3 35 8.7 NNE 4 6 2 3 1015.2 - 0.0
23/07:00pm 24.8 22.8 7.0 32 9.4 NNE 7 7 4 4 1014.9 - 0.0
23/06:30pm 26.4 24.0 6.9 29 10.4 NE 9 11 5 6 1014.6 - 0.0
23/06:00pm 28.2 25.9 7.4 27 11.3 NNE 9 11 5 6 1014.2 1013.0 0.0
23/05:30pm 29.3 27.3 7.2 25 12.0 NNE 7 9 4 5 1013.9 - 0.0
23/05:00pm 30.0 27.5 6.6 23 12.7 ENE 9 13 5 7 1013.8 - 0.0
23/04:30pm 30.9 27.8 7.4 23 12.9 NE 13 17 7 9 1013.7 - 0.0
23/04:00pm 31.4 29.7 8.4 24 12.9 NE 7 13 4 7 1013.7 - 0.0
23/03:30pm 30.7 27.5 8.4 25 12.5 E 15 22 8 12 1013.9 - 0.0
23/03:00pm 30.9 28.5 8.6 25 12.5 NE 11 19 6 10 1014.0 1012.8 0.0
23/02:30pm 30.5 27.9 9.4 27 12.0 E 13 19 7 10 1014.1 - 0.0
23/02:00pm 31.1 29.8 9.3 26 12.4 SSE 6 17 3 9 1014.4 - 0.0
23/01:30pm 30.2 26.7 8.6 26 12.1 ENE 17 26 9 14 1015.0 - 0.0
23/01:00pm 30.7 28.4 9.0 26 12.3 E 11 20 6 11 1015.4 - 0.0
23/12:30pm 30.6 28.5 11.1 30 11.4 NE 13 24 7 13 1016.0 - 0.0
23/12:00pm 29.8 28.3 11.8 33 10.6 NE 11 17 6 9 1016.7 1015.4 0.0
23/11:30am 29.0 26.1 12.4 36 9.8 NE 19 20 10 11 1017.3 - 0.0
23/11:00am 28.3 27.4 13.8 41 8.7 NE 11 20 6 11 1017.9 - 0.0
23/10:30am 27.7 27.1 14.7 45 7.9 N 11 20 6 11 1018.1 - 0.0
23/10:00am 26.6 25.3 14.7 48 7.2 N 15 20 8 11 1018.4 - 0.0
23/09:30am 25.7 24.0 14.8 51 6.6 N 17 24 9 13 1018.5 - 0.0
23/09:00am 25.2 23.2 14.9 52 6.2 N 19 24 10 13 1018.4 1017.1 0.0
23/08:30am 23.8 22.0 14.5 56 5.6 NNE 17 24 9 13 1018.3 - 0.0
23/08:00am 22.4 21.0 13.5 57 5.2 NNE 13 20 7 11 1018.1 - 0.0
23/07:30am 20.2 19.2 12.2 60 4.5 NE 9 13 5 7 1017.8 - 0.0
23/07:00am 18.8 17.2 11.6 63 4.0 NE 11 13 6 7 1017.6 - 0.0
23/06:30am 18.9 17.5 11.0 60 4.4 NE 9 13 5 7 1017.3 - 0.0
23/06:00am 19.2 17.7 10.5 57 4.7 ENE 9 13 5 7 1016.9 1015.7 0.0
23/05:30am 20.3 18.2 11.0 55 5.2 NE 13 17 7 9 1016.6 - 0.0
23/05:00am 20.3 18.6 11.2 56 5.1 NE 11 17 6 9 1016.4 - 0.0
23/04:30am 19.0 17.0 8.6 51 5.5 NE 9 11 5 6 1016.5 - 0.0
23/04:00am 19.0 16.5 8.1 49 5.7 NE 11 13 6 7 1016.2 - 0.0
23/03:30am 19.3 16.5 7.1 45 6.3 NE 11 17 6 9 1016.3 - 0.0
23/03:00am 20.3 16.8 7.0 42 6.8 NE 15 19 8 10 1016.3 1015.0 0.0
23/02:30am 19.1 16.2 6.6 44 6.3 E 11 13 6 7 1016.3 - 0.0
23/02:00am 18.5 16.3 6.4 45 6.1 E 7 9 4 5 1016.7 - 0.0
23/01:30am 18.6 16.1 6.4 45 6.1 ESE 9 11 5 6 1016.8 - 0.0
23/01:00am 18.4 16.2 6.3 45 6.1 ESE 7 7 4 4 1016.9 - 0.0
23/12:30am 19.5 16.9 5.9 41 6.8 ENE 9 11 5 6 1017.0 - 0.0
23/12:00am 20.6 18.0 6.2 39 7.3 ENE 9 13 5 7 1017.0 1015.8 0.0
 
Date/Time
EST
Temp
°C
App
Temp
°C
Dew
Point
Rel
Hum
%
Delta-T
°C
Wind Press
QNH
hPa
Press
MSL
hPa
Rain
since 9 am
mm
Dir
 
Spd
km/h
Gust
km/h
Spd
kts
Gust
kts
22/11:30pm 20.9 18.4 6.4 39 7.4 NE 9 11 5 6 1017.2 - 0.0
22/11:00pm 21.0 18.4 6.2 38 7.5 NE 9 13 5 7 1017.4 - 0.0
22/10:30pm 21.6 19.0 5.9 36 8.0 NNE 9 11 5 6 1017.6 - 0.0
22/10:00pm 21.5 18.8 5.8 36 8.0 NNE 9 11 5 6 1017.6 - 0.0
22/09:30pm 22.2 19.2 6.0 35 8.3 NE 11 13 6 7 1017.6 - 0.0
22/09:00pm 22.5 19.5 5.9 34 8.5 NE 11 13 6 7 1017.7 1016.5 0.0
22/08:30pm 22.9 19.9 6.2 34 8.6 NE 11 13 6 7 1017.6 - 0.0
22/08:00pm 23.2 20.1 5.6 32 9.0 NE 11 13 6 7 1017.2 - 0.0
22/07:30pm 23.6 20.9 5.5 31 9.3 NE 9 11 5 6 1017.0 - 0.0
22/07:00pm 23.9 21.0 4.8 29 9.7 NE 9 13 5 7 1016.7 - 0.0
22/06:30pm 25.1 22.1 4.3 26 10.5 NE 9 13 5 7 1016.3 - 0.0
22/06:00pm 26.5 23.5 4.3 24 11.3 E 9 11 5 6 1016.1 1014.8 0.0
22/05:30pm 28.3 24.6 4.6 22 12.3 E 13 24 7 13 1015.8 - 0.0
22/05:00pm 29.1 25.3 3.9 20 13.0 E 13 20 7 11 1015.6 - 0.0
22/04:30pm 29.8 25.7 4.4 20 13.2 SE 15 20 8 11 1015.4 - 0.0
22/04:00pm 30.5 26.7 5.7 21 13.3 ESE 15 26 8 14 1015.5 - 0.0
22/03:30pm 30.3 26.1 5.6 21 13.2 ENE 17 24 9 13 1015.6 - 0.0
22/03:00pm 29.9 25.0 5.2 21 13.0 ESE 20 26 11 14 1015.9 1014.6 0.0
22/02:30pm 29.6 25.2 5.0 21 12.9 NE 17 24 9 13 1016.1 - 0.0
22/02:00pm 30.2 24.0 6.1 22 12.9 NE 28 32 15 17 1016.5 - 0.0
22/01:30pm 29.8 26.4 7.7 25 12.2 ENE 15 30 8 16 1016.9 - 0.0
22/01:00pm 30.1 26.4 7.9 25 12.3 E 17 26 9 14 1017.5 - 0.0
22/12:30pm 28.1 24.1 6.8 26 11.4 NE 17 30 9 16 1018.3 - 0.0
22/12:00pm 28.5 24.2 7.7 27 11.4 ENE 20 32 11 17 1018.8 1017.5 0.0
22/11:30am 28.5 23.8 7.7 27 11.4 ENE 22 28 12 15 1019.5 - 0.0
22/11:00am 27.6 23.5 8.5 30 10.5 NE 20 30 11 16 1020.0 - 0.0
22/10:30am 27.3 23.5 9.2 32 10.1 NNE 19 28 10 15 1020.3 - 0.0
22/10:00am 26.3 22.3 9.2 34 9.5 NNE 20 28 11 15 1020.6 - 0.0
22/09:30am 24.9 20.6 9.2 37 8.6 NNE 22 32 12 17 1020.6 - 0.0
22/09:00am 23.1 20.6 11.2 47 6.7 NNE 15 22 8 12 1020.6 1019.4 0.0
22/08:30am 21.5 18.6 10.9 51 5.9 NNE 17 26 9 14 1020.3 - 0.0
22/08:00am 19.8 18.0 11.0 57 4.9 NNE 11 17 6 9 1020.1 - 0.0
22/07:30am 18.1 16.3 11.0 63 3.9 NNE 11 17 6 9 1019.7 - 0.0
22/07:00am 16.1 14.0 9.8 66 3.3 NE 11 13 6 7 1019.4 - 0.0
22/06:30am 15.5 13.7 9.4 67 3.2 NE 9 11 5 6 1019.0 - 0.0
22/06:00am 16.1 14.0 9.8 66 3.3 NNE 11 15 6 8 1018.7 1017.4 0.0
22/05:30am 16.0 13.5 9.7 66 3.3 NE 13 17 7 9 1018.6 - 0.0
22/05:00am 15.7 13.7 8.7 63 3.6 NE 9 11 5 6 1018.5 - 0.0
22/04:30am 16.5 14.5 8.7 60 4.1 NE 9 11 5 6 1018.3 - 0.0
22/04:00am 15.9 13.8 8.4 61 3.9 NE 9 11 5 6 1018.1 - 0.0
22/03:30am 17.4 15.5 9.1 58 4.4 NE 9 13 5 7 1017.9 - 0.0
22/03:00am 17.6 15.4 9.2 58 4.4 NE 11 15 6 8 1017.7 1016.5 0.0
22/02:30am 18.1 15.8 8.9 55 4.8 NE 11 13 6 7 1017.8 - 0.0
22/02:00am 18.0 16.0 8.8 55 4.8 NE 9 13 5 7 1018.2 - 0.0
22/01:30am 17.7 16.0 8.3 54 4.9 N 7 9 4 5 1018.3 - 0.0
22/01:00am 18.2 16.2 8.5 53 5.1 NNE 9 11 5 6 1018.2 - 0.0
22/12:30am 18.2 16.5 8.2 52 5.2 NNE 7 7 4 4 1018.5 - 0.0
22/12:00am 18.4 16.6 7.8 50 5.5 NE 7 9 4 5 1018.5 1017.2 0.0
 
Date/Time
EST
Temp
°C
App
Temp
°C
Dew
Point
Rel
Hum
%
Delta-T
°C
Wind Press
QNH
hPa
Press
MSL
hPa
Rain
since 9 am
mm
Dir
 
Spd
km/h
Gust
km/h
Spd
kts
Gust
kts
21/11:30pm 19.7 17.2 8.4 48 6.0 NE 11 13 6 7 1018.7 - 0.0

Other Formats:

Comma delimited format used in spreadsheet applications
http://www.bom.gov.au/fwo/IDQ60801/IDQ60801.95351.axf

JavaScript Object Notation format (JSON) in row-major order
http://www.bom.gov.au/fwo/IDQ60801/IDQ60801.95351.json